Time;durP1;ratioP1;P1;durP2;ratioP2;P2;SDS_P1;SDS_P2;PMS_P1;PMS_P2;Temp;Humidity;BMP_temperature;BMP_pressure;BME280_temperature;BME280_humidity;BME280_pressure;Samples;Min_cycle;Max_cycle;Signal;HPM_P1;HPM_P2
2021/12/11 00:01:14;;;;;;;11.00;2.75;;;;;;;;;;5097772;28;20261;-80
2021/12/11 00:03:43;;;;;;;7.03;2.85;;;;;;;;;;5100794;28;20596;-80
2021/12/11 00:06:11;;;;;;;11.82;2.70;;;;;;;;;;5097412;28;20076;-80
2021/12/11 00:08:38;;;;;;;11.23;2.80;;;;;;;;;;5087263;28;20028;-81
2021/12/11 00:11:20;;;;;;;11.50;3.15;;;;;;;;;;5099504;28;20089;-82
2021/12/11 00:13:46;;;;;;;9.02;2.50;;;;;;;;;;5086108;28;20028;-82
2021/12/11 00:16:17;;;;;;;13.32;3.00;;;;;;;;;;5080823;28;20453;-81
2021/12/11 00:18:43;;;;;;;12.88;2.75;;;;;;;;;;5097704;28;20032;-81
2021/12/11 00:21:16;;;;;;;11.55;2.70;;;;;;;;;;5101098;28;20092;-82
2021/12/11 00:23:59;;;;;;;11.38;2.33;;;;;;;;;;5105818;28;20027;-83
2021/12/11 00:26:33;;;;;;;11.93;2.40;;;;;;;;;;5089960;28;20044;-80
2021/12/11 00:28:59;;;;;;;8.73;2.20;;;;;;;;;;5087181;28;20031;-79
2021/12/11 00:31:27;;;;;;;8.38;2.08;;;;;;;;;;5093119;28;20035;-81
2021/12/11 00:33:54;;;;;;;13.48;2.50;;;;;;;;;;5090049;28;20016;-81
2021/12/11 00:36:31;;;;;;;7.82;2.15;;;;;;;;;;5080795;28;20048;-79
2021/12/11 00:39:08;;;;;;;9.75;2.53;;;;;;;;;;5080855;28;20033;-80
2021/12/11 00:41:35;;;;;;;8.77;2.33;;;;;;;;;;5079375;28;20031;-77
2021/12/11 00:44:01;;;;;;;11.43;2.08;;;;;;;;;;5079659;28;20056;-79
2021/12/11 00:46:28;;;;;;;7.82;2.65;;;;;;;;;;5092225;28;20028;-81
2021/12/11 00:48:55;;;;;;;13.57;2.50;;;;;;;;;;5101007;28;20035;-81
2021/12/11 00:51:22;;;;;;;10.60;2.47;;;;;;;;;;5099944;28;20020;-80
2021/12/11 00:53:58;;;;;;;6.75;2.30;;;;;;;;;;5099604;28;20224;-80
2021/12/11 00:56:37;;;;;;;12.30;2.67;;;;;;;;;;5101568;28;20230;-80
2021/12/11 00:59:12;;;;;;;8.82;2.85;;;;;;;;;;5104739;28;20069;-80
2021/12/11 01:01:55;;;;;;;9.85;2.38;;;;;;;;;;5103533;28;20035;-80
2021/12/11 01:04:31;;;;;;;6.40;2.20;;;;;;;;;;5104854;28;20016;-80
2021/12/11 01:07:01;;;;;;;8.48;2.40;;;;;;;;;;5104724;28;20085;-77
2021/12/11 01:09:35;;;;;;;8.38;2.38;;;;;;;;;;5104566;28;20020;-79
2021/12/11 01:12:12;;;;;;;9.05;2.30;;;;;;;;;;5104510;28;20012;-78
2021/12/11 01:14:51;;;;;;;10.30;2.28;;;;;;;;;;5104112;28;20067;-79
2021/12/11 01:18:10;;;;;;;8.00;1.95;;;;;;;;;;5104644;28;20023;-78
2021/12/11 01:20:35;;;;;;;7.20;2.28;;;;;;;;;;5104098;28;20040;-78
2021/12/11 01:23:14;;;;;;;8.15;2.20;;;;;;;;;;5104483;28;20405;-80
2021/12/11 01:25:39;;;;;;;6.32;2.17;;;;;;;;;;5104197;28;20073;-79
2021/12/11 01:28:05;;;;;;;10.05;2.30;;;;;;;;;;5104105;28;20039;-79
2021/12/11 01:30:34;;;;;;;8.68;2.35;;;;;;;;;;5103776;28;20024;-79
2021/12/11 01:33:02;;;;;;;10.05;2.50;;;;;;;;;;5104118;28;20020;-79
2021/12/11 01:35:28;;;;;;;13.57;2.35;;;;;;;;;;5104165;28;20061;-79
2021/12/11 01:38:19;;;;;;;11.18;2.25;;;;;;;;;;5104170;28;20024;-79
2021/12/11 01:40:48;;;;;;;9.75;2.20;;;;;;;;;;5102841;28;20036;-78
2021/12/11 01:43:14;;;;;;;8.25;2.03;;;;;;;;;;5103999;28;20330;-80
2021/12/11 01:45:46;;;;;;;6.32;2.00;;;;;;;;;;5106124;28;20077;-78
2021/12/11 01:48:18;;;;;;;7.78;2.15;;;;;;;;;;5112924;28;20416;-80
2021/12/11 01:50:49;;;;;;;9.82;2.10;;;;;;;;;;5107585;28;20091;-80
2021/12/11 01:53:20;;;;;;;8.73;2.08;;;;;;;;;;5104420;28;20032;-79
2021/12/11 01:56:02;;;;;;;8.27;2.10;;;;;;;;;;5103877;28;20077;-79
2021/12/11 01:58:39;;;;;;;10.98;2.53;;;;;;;;;;5103796;28;20061;-80
2021/12/11 02:01:18;;;;;;;12.45;2.42;;;;;;;;;;5103204;28;20020;-80
2021/12/11 02:03:45;;;;;;;9.88;2.45;;;;;;;;;;5103698;28;20016;-79
2021/12/11 02:06:11;;;;;;;7.47;2.20;;;;;;;;;;5103766;28;20360;-80
2021/12/11 02:08:39;;;;;;;8.20;2.55;;;;;;;;;;5103187;28;20024;-80
2021/12/11 02:11:09;;;;;;;10.95;2.33;;;;;;;;;;5103431;28;20336;-79
2021/12/11 02:13:42;;;;;;;11.32;2.30;;;;;;;;;;5102847;28;20312;-78
2021/12/11 02:16:43;;;;;;;14.00;2.22;;;;;;;;;;5103543;28;20024;-80
2021/12/11 02:19:29;;;;;;;12.77;2.42;;;;;;;;;;5103195;28;20327;-80
2021/12/11 02:21:56;;;;;;;11.75;2.30;;;;;;;;;;5103113;28;20401;-80
2021/12/11 02:24:26;;;;;;;14.60;2.63;;;;;;;;;;5102955;28;20321;-79
2021/12/11 02:26:54;;;;;;;6.85;2.10;;;;;;;;;;5102748;28;20028;-80
2021/12/11 02:29:37;;;;;;;6.72;1.85;;;;;;;;;;5102702;28;20020;-80
2021/12/11 02:32:18;;;;;;;6.80;2.15;;;;;;;;;;5103218;28;20035;-79
2021/12/11 02:34:53;;;;;;;10.13;2.28;;;;;;;;;;5102611;28;20103;-80
2021/12/11 02:37:37;;;;;;;8.88;2.35;;;;;;;;;;5103066;28;20032;-80
2021/12/11 02:40:29;;;;;;;12.93;2.20;;;;;;;;;;5102002;28;20031;-80
2021/12/11 02:43:00;;;;;;;9.02;2.40;;;;;;;;;;5102191;28;20037;-79
2021/12/11 02:46:03;;;;;;;13.23;2.22;;;;;;;;;;5100950;28;20339;-76
2021/12/11 02:48:41;;;;;;;10.38;2.60;;;;;;;;;;5077924;28;20351;-75
2021/12/11 02:51:14;;;;;;;11.02;2.28;;;;;;;;;;5101314;28;20023;-75
2021/12/11 02:53:42;;;;;;;6.43;2.10;;;;;;;;;;5101605;28;20092;-76
2021/12/11 02:56:11;;;;;;;9.43;2.22;;;;;;;;;;5100209;28;20024;-76
2021/12/11 02:58:44;;;;;;;6.70;2.20;;;;;;;;;;5099556;28;20032;-75
2021/12/11 03:01:22;;;;;;;8.40;1.98;;;;;;;;;;5100052;28;20024;-75
2021/12/11 03:03:55;;;;;;;7.95;2.17;;;;;;;;;;5101354;28;20098;-76
2021/12/11 03:06:25;;;;;;;11.32;2.10;;;;;;;;;;5101392;28;20173;-75
2021/12/11 03:08:53;;;;;;;9.70;1.95;;;;;;;;;;5099767;28;20347;-76
2021/12/11 03:11:21;;;;;;;14.35;2.50;;;;;;;;;;5101089;28;20209;-75
2021/12/11 03:13:52;;;;;;;10.88;2.22;;;;;;;;;;5100735;28;20022;-75
2021/12/11 03:16:24;;;;;;;8.20;2.25;;;;;;;;;;5101164;28;20016;-74
2021/12/11 03:18:55;;;;;;;11.45;2.35;;;;;;;;;;5100466;28;20024;-76
2021/12/11 03:21:21;;;;;;;7.10;2.15;;;;;;;;;;5100911;28;20035;-74
2021/12/11 03:23:47;;;;;;;6.25;2.40;;;;;;;;;;5100895;28;20079;-75
2021/12/11 03:26:13;;;;;;;10.73;2.30;;;;;;;;;;5100782;28;20072;-75
2021/12/11 03:28:38;;;;;;;12.23;2.50;;;;;;;;;;5099962;28;20409;-75
2021/12/11 03:31:04;;;;;;;10.52;2.47;;;;;;;;;;5101177;28;20016;-75
2021/12/11 03:33:37;;;;;;;9.57;2.25;;;;;;;;;;5102123;28;20039;-75
2021/12/11 03:36:07;;;;;;;10.45;2.53;;;;;;;;;;5101924;28;20047;-75
2021/12/11 03:38:36;;;;;;;11.25;2.50;;;;;;;;;;5101748;28;20027;-75
2021/12/11 03:41:04;;;;;;;10.50;2.50;;;;;;;;;;5101994;28;20023;-75
2021/12/11 03:43:29;;;;;;;13.27;3.05;;;;;;;;;;5101026;28;20300;-75
2021/12/11 03:46:01;;;;;;;15.77;2.65;;;;;;;;;;5100536;28;20031;-75
2021/12/11 03:48:33;;;;;;;11.75;2.80;;;;;;;;;;5100306;28;20325;-76
2021/12/11 03:50:59;;;;;;;13.38;2.50;;;;;;;;;;5100565;28;20064;-75
2021/12/11 03:53:25;;;;;;;14.05;3.45;;;;;;;;;;5098830;28;20032;-77
2021/12/11 03:55:55;;;;;;;10.48;2.42;;;;;;;;;;5092474;28;20079;-75
2021/12/11 03:58:21;;;;;;;12.95;2.90;;;;;;;;;;5099841;28;20027;-76
2021/12/11 04:00:55;;;;;;;9.85;2.97;;;;;;;;;;5100269;28;20104;-76
2021/12/11 04:03:24;;;;;;;11.77;3.20;;;;;;;;;;5099214;28;20027;-75
2021/12/11 04:05:50;;;;;;;14.30;3.00;;;;;;;;;;5100212;28;20253;-75
2021/12/11 04:08:19;;;;;;;10.65;3.40;;;;;;;;;;5100187;28;20059;-77
2021/12/11 04:10:45;;;;;;;13.18;2.85;;;;;;;;;;5099808;28;20035;-74
2021/12/11 04:13:13;;;;;;;9.88;2.88;;;;;;;;;;5099437;28;20177;-74
2021/12/11 04:15:40;;;;;;;10.50;2.90;;;;;;;;;;5100079;28;20060;-75
2021/12/11 04:18:07;;;;;;;13.48;3.00;;;;;;;;;;5100072;28;20308;-75
2021/12/11 04:20:36;;;;;;;8.23;2.40;;;;;;;;;;5100061;28;20054;-76
2021/12/11 04:23:02;;;;;;;9.38;2.53;;;;;;;;;;5100083;28;20077;-77
2021/12/11 04:25:28;;;;;;;7.95;2.42;;;;;;;;;;5098800;28;20232;-80
2021/12/11 04:27:54;;;;;;;9.48;2.90;;;;;;;;;;5099183;28;20036;-77
2021/12/11 04:30:22;;;;;;;12.77;2.70;;;;;;;;;;5101144;28;20032;-76
2021/12/11 04:32:49;;;;;;;11.75;2.92;;;;;;;;;;5105550;28;20016;-76
2021/12/11 04:35:16;;;;;;;11.18;3.00;;;;;;;;;;5106563;28;20124;-75
2021/12/11 04:37:43;;;;;;;13.00;2.88;;;;;;;;;;5105517;28;20047;-77
2021/12/11 04:40:17;;;;;;;11.27;3.30;;;;;;;;;;5105435;28;20062;-75
2021/12/11 04:45:19;;;;;;;8.70;2.80;;;;;;;;;;5106609;28;20012;-77
2021/12/11 04:47:57;;;;;;;12.50;2.80;;;;;;;;;;5106969;28;20035;-77
2021/12/11 04:50:37;;;;;;;8.82;2.78;;;;;;;;;;5103149;28;20048;-76
2021/12/11 04:53:07;;;;;;;11.40;2.92;;;;;;;;;;5106773;28;20052;-74
2021/12/11 04:56:13;;;;;;;9.80;2.60;;;;;;;;;;5106258;28;20047;-78
2021/12/11 05:11:16;;;;;;;18.13;3.08;;;;;;;;;;5087240;28;20020;-79
2021/12/11 05:13:43;;;;;;;11.63;2.30;;;;;;;;;;5094841;28;20020;-81
2021/12/11 05:16:11;;;;;;;10.15;2.55;;;;;;;;;;5095892;28;20020;-80
2021/12/11 05:18:39;;;;;;;12.70;2.35;;;;;;;;;;5087378;28;20376;-81
2021/12/11 05:21:12;;;;;;;9.38;2.17;;;;;;;;;;5087100;28;20336;-82
2021/12/11 05:23:38;;;;;;;8.13;2.20;;;;;;;;;;5086118;28;20321;-78
2021/12/11 05:26:04;;;;;;;11.52;2.50;;;;;;;;;;5086818;28;20098;-80
2021/12/11 05:28:31;;;;;;;9.40;2.38;;;;;;;;;;5086689;28;20036;-81
2021/12/11 05:31:00;;;;;;;14.18;2.42;;;;;;;;;;5087081;28;20092;-79
2021/12/11 05:33:25;;;;;;;11.88;2.28;;;;;;;;;;5086211;28;20021;-79
2021/12/11 05:35:51;;;;;;;9.48;2.10;;;;;;;;;;5086763;28;20016;-78
2021/12/11 05:38:21;;;;;;;11.05;2.17;;;;;;;;;;5087592;28;20038;-80
2021/12/11 05:40:51;;;;;;;11.68;2.50;;;;;;;;;;5094569;28;20044;-81
2021/12/11 05:43:18;;;;;;;10.40;2.67;;;;;;;;;;5103475;28;20024;-81
2021/12/11 05:45:43;;;;;;;11.88;2.22;;;;;;;;;;5098511;28;20047;-80
2021/12/11 05:48:10;;;;;;;9.88;2.67;;;;;;;;;;5095475;28;20220;-81
2021/12/11 05:50:42;;;;;;;8.52;2.35;;;;;;;;;;5100609;28;20020;-81
2021/12/11 05:53:08;;;;;;;11.73;2.67;;;;;;;;;;5083776;28;20072;-82
2021/12/11 05:55:34;;;;;;;14.85;2.80;;;;;;;;;;5082420;28;20028;-81
2021/12/11 05:58:03;;;;;;;13.88;3.25;;;;;;;;;;5083335;28;20012;-81
2021/12/11 06:00:33;;;;;;;8.60;2.92;;;;;;;;;;5083578;28;20201;-81
2021/12/11 06:03:01;;;;;;;8.02;2.38;;;;;;;;;;5085579;28;20070;-80
2021/12/11 06:05:27;;;;;;;11.82;3.08;;;;;;;;;;5083099;28;20099;-83
2021/12/11 06:07:53;;;;;;;12.02;3.00;;;;;;;;;;5083671;28;20024;-82
2021/12/11 06:10:20;;;;;;;9.15;2.90;;;;;;;;;;5083589;28;20198;-84
2021/12/11 06:12:48;;;;;;;10.10;2.75;;;;;;;;;;5082179;28;20020;-82
2021/12/11 06:15:13;;;;;;;10.27;2.75;;;;;;;;;;5082946;28;20021;-81
2021/12/11 06:17:42;;;;;;;12.23;2.75;;;;;;;;;;5083168;28;20035;-78
2021/12/11 06:20:11;;;;;;;14.27;2.90;;;;;;;;;;5083101;28;20092;-79
2021/12/11 06:22:37;;;;;;;10.95;2.80;;;;;;;;;;5083128;28;20028;-78
2021/12/11 06:25:09;;;;;;;13.18;3.45;;;;;;;;;;5083163;28;20025;-80
2021/12/11 06:27:37;;;;;;;10.80;3.00;;;;;;;;;;5082806;28;20036;-79
2021/12/11 06:30:04;;;;;;;15.65;3.15;;;;;;;;;;5099338;28;20228;-78
2021/12/11 06:32:29;;;;;;;13.90;4.07;;;;;;;;;;5103201;28;20039;-78
2021/12/11 06:34:57;;;;;;;12.55;3.50;;;;;;;;;;5102832;28;20377;-78
2021/12/11 06:37:23;;;;;;;9.95;3.33;;;;;;;;;;5102891;28;20020;-78
2021/12/11 06:39:51;;;;;;;12.93;3.60;;;;;;;;;;5099886;28;20313;-81
2021/12/11 06:42:18;;;;;;;15.10;3.90;;;;;;;;;;5102907;28;20035;-80
2021/12/11 06:44:44;;;;;;;16.48;3.78;;;;;;;;;;5101412;28;20016;-81
2021/12/11 06:47:11;;;;;;;14.63;4.10;;;;;;;;;;5087667;28;20043;-80
2021/12/11 06:49:39;;;;;;;15.60;3.90;;;;;;;;;;5094876;28;20024;-79
2021/12/11 06:52:09;;;;;;;18.88;4.28;;;;;;;;;;5095399;28;20024;-78
2021/12/11 06:54:35;;;;;;;13.48;3.65;;;;;;;;;;5081182;28;20020;-79
2021/12/11 06:57:00;;;;;;;11.88;3.13;;;;;;;;;;5082261;28;20025;-79
2021/12/11 06:59:26;;;;;;;8.73;3.05;;;;;;;;;;5095405;28;20031;-78
2021/12/11 07:01:51;;;;;;;12.27;3.28;;;;;;;;;;5092569;28;20020;-78
2021/12/11 07:04:17;;;;;;;14.73;3.80;;;;;;;;;;5096350;28;20339;-78
2021/12/11 07:06:48;;;;;;;11.90;3.70;;;;;;;;;;5096157;28;20056;-77
2021/12/11 07:09:15;;;;;;;16.77;4.35;;;;;;;;;;5092763;28;20108;-79
2021/12/11 07:11:45;;;;;;;9.65;3.80;;;;;;;;;;5091313;28;20024;-77
2021/12/11 07:14:17;;;;;;;14.48;5.30;;;;;;;;;;5096610;28;20020;-75
2021/12/11 07:16:43;;;;;;;16.65;4.65;;;;;;;;;;5081712;28;20324;-77
2021/12/11 07:19:10;;;;;;;11.73;3.97;;;;;;;;;;5081893;28;20080;-77
2021/12/11 07:21:37;;;;;;;16.05;5.50;;;;;;;;;;5087549;28;20073;-77
2021/12/11 07:24:05;;;;;;;14.48;5.10;;;;;;;;;;5088195;28;20051;-78
2021/12/11 07:26:33;;;;;;;14.90;5.00;;;;;;;;;;5101601;28;20047;-79
2021/12/11 07:29:04;;;;;;;13.25;4.60;;;;;;;;;;5091114;28;20044;-79
2021/12/11 07:31:30;;;;;;;12.27;4.80;;;;;;;;;;5081927;28;20032;-77
2021/12/11 07:33:56;;;;;;;12.40;4.80;;;;;;;;;;5081621;28;20048;-76
2021/12/11 07:36:22;;;;;;;11.93;5.03;;;;;;;;;;5081488;28;20044;-76
2021/12/11 07:38:48;;;;;;;11.10;4.43;;;;;;;;;;5090001;28;20034;-77
2021/12/11 07:41:15;;;;;;;13.35;4.93;;;;;;;;;;5087977;28;20081;-77
2021/12/11 07:43:42;;;;;;;18.10;5.65;;;;;;;;;;5090615;28;20031;-76
2021/12/11 07:46:13;;;;;;;16.27;5.90;;;;;;;;;;5082096;28;20086;-76
2021/12/11 07:48:38;;;;;;;20.60;6.40;;;;;;;;;;5081431;28;20032;-77
2021/12/11 07:51:04;;;;;;;19.55;7.35;;;;;;;;;;5093026;28;20035;-75
2021/12/11 07:53:30;;;;;;;19.23;6.80;;;;;;;;;;5085503;28;20027;-76
2021/12/11 07:55:56;;;;;;;17.63;6.63;;;;;;;;;;5085043;28;20016;-76
2021/12/11 07:58:21;;;;;;;16.02;5.18;;;;;;;;;;5101922;28;20099;-75
2021/12/11 08:00:48;;;;;;;13.45;6.10;;;;;;;;;;5098935;28;20035;-75
2021/12/11 08:03:16;;;;;;;15.73;6.35;;;;;;;;;;5097387;28;20024;-75
2021/12/11 08:05:43;;;;;;;15.20;6.57;;;;;;;;;;5100953;28;20130;-78
2021/12/11 08:08:10;;;;;;;29.10;12.60;;;;;;;;;;5085150;28;20028;-80
2021/12/11 08:10:38;;;;;;;25.80;8.95;;;;;;;;;;5080853;28;20028;-79
2021/12/11 08:13:05;;;;;;;20.13;7.97;;;;;;;;;;5080884;28;20336;-80
2021/12/11 08:15:31;;;;;;;22.05;7.13;;;;;;;;;;5085084;28;20028;-79
2021/12/11 08:17:57;;;;;;;26.48;7.60;;;;;;;;;;5095761;28;20027;-80
2021/12/11 08:20:25;;;;;;;17.17;6.65;;;;;;;;;;5080851;28;20068;-79
2021/12/11 08:22:52;;;;;;;15.05;6.53;;;;;;;;;;5080025;28;20078;-81
2021/12/11 08:25:19;;;;;;;20.52;6.15;;;;;;;;;;5080786;28;20078;-81
2021/12/11 08:27:45;;;;;;;19.98;5.88;;;;;;;;;;5080958;28;20221;-79
2021/12/11 08:30:11;;;;;;;18.10;6.15;;;;;;;;;;5079539;28;20086;-78
2021/12/11 08:32:37;;;;;;;24.88;6.50;;;;;;;;;;5081053;28;20041;-78
2021/12/11 08:35:05;;;;;;;23.10;8.07;;;;;;;;;;5080960;28;20024;-80
2021/12/11 08:37:31;;;;;;;20.33;7.72;;;;;;;;;;5086384;28;20024;-78
2021/12/11 08:39:56;;;;;;;24.67;8.98;;;;;;;;;;5084754;28;20055;-79
2021/12/11 08:42:25;;;;;;;21.95;8.93;;;;;;;;;;5080409;28;20024;-80
2021/12/11 08:44:58;;;;;;;21.90;7.95;;;;;;;;;;5080604;28;20154;-79
2021/12/11 08:47:25;;;;;;;21.92;7.78;;;;;;;;;;5080592;28;20074;-79
2021/12/11 08:49:52;;;;;;;21.33;7.78;;;;;;;;;;5080526;28;20349;-78
2021/12/11 08:52:35;;;;;;;23.40;7.13;;;;;;;;;;5081201;28;20032;-78
2021/12/11 08:55:04;;;;;;;21.45;7.30;;;;;;;;;;5080809;28;20020;-78
2021/12/11 08:57:33;;;;;;;19.33;6.78;;;;;;;;;;5079272;28;20100;-78
2021/12/11 09:00:06;;;;;;;23.42;7.60;;;;;;;;;;5089520;28;20035;-79
2021/12/11 09:02:48;;;;;;;21.38;7.15;;;;;;;;;;5085886;28;20052;-79
2021/12/11 09:05:45;;;;;;;17.75;7.35;;;;;;;;;;5080522;28;20025;-78
2021/12/11 09:08:25;;;;;;;21.95;7.13;;;;;;;;;;5076855;28;20036;-79
2021/12/11 09:10:56;;;;;;;16.40;7.50;;;;;;;;;;5080447;28;20328;-79
2021/12/11 09:13:25;;;;;;;19.73;7.22;;;;;;;;;;5086226;28;20236;-79
2021/12/11 09:15:59;;;;;;;16.23;6.57;;;;;;;;;;5085734;28;20074;-79
2021/12/11 09:18:33;;;;;;;20.23;7.70;;;;;;;;;;5083179;28;20016;-79
2021/12/11 09:21:11;;;;;;;18.23;6.75;;;;;;;;;;5082918;28;20028;-79
2021/12/11 09:24:17;;;;;;;16.30;6.10;;;;;;;;;;5084316;28;20027;-80
2021/12/11 09:27:11;;;;;;;21.83;6.65;;;;;;;;;;5058634;28;20048;-79
2021/12/11 09:29:57;;;;;;;15.95;6.70;;;;;;;;;;5103841;28;20039;-79
2021/12/11 09:32:43;;;;;;;16.25;5.60;;;;;;;;;;5083863;28;20039;-79
2021/12/11 09:35:12;;;;;;;16.33;5.68;;;;;;;;;;5084989;28;20020;-76
2021/12/11 09:37:38;;;;;;;13.63;5.10;;;;;;;;;;5083761;28;20339;-79
2021/12/11 09:40:30;;;;;;;18.33;5.05;;;;;;;;;;5082581;28;20078;-87
2021/12/11 09:42:55;;;;;;;15.13;4.88;;;;;;;;;;5087579;28;20081;-84
2021/12/11 09:45:26;;;;;;;14.35;4.63;;;;;;;;;;5095306;28;20032;-77
2021/12/11 09:47:59;;;;;;;10.65;4.15;;;;;;;;;;5081924;28;20209;-83
2021/12/11 09:50:40;;;;;;;19.08;5.18;;;;;;;;;;5101472;28;20031;-89
2021/12/11 09:53:06;;;;;;;21.70;6.03;;;;;;;;;;5104017;28;20027;-89
2021/12/11 09:55:37;;;;;;;17.55;4.95;;;;;;;;;;5107075;28;20145;-90
2021/12/11 09:58:06;;;;;;;22.00;5.90;;;;;;;;;;5103485;28;20096;-83
2021/12/11 10:00:37;;;;;;;16.85;5.00;;;;;;;;;;5103829;28;20121;-81
2021/12/11 10:03:05;;;;;;;19.95;5.50;;;;;;;;;;5103901;28;20023;-77
2021/12/11 10:05:43;;;;;;;16.27;5.65;;;;;;;;;;5104461;28;20023;-79
2021/12/11 10:08:37;;;;;;;16.98;6.05;;;;;;;;;;5109371;28;20051;-82
2021/12/11 10:11:22;;;;;;;16.92;6.15;;;;;;;;;;5103378;28;20036;-81
2021/12/11 10:14:10;;;;;;;22.08;8.15;;;;;;;;;;5103623;28;20048;-79
2021/12/11 10:16:42;;;;;;;17.30;6.95;;;;;;;;;;5103476;28;20035;-82
2021/12/11 10:19:11;;;;;;;15.98;5.97;;;;;;;;;;5082490;28;20048;-82
2021/12/11 10:21:41;;;;;;;20.40;6.65;;;;;;;;;;5082833;28;20016;-83
2021/12/11 10:24:14;;;;;;;17.90;6.35;;;;;;;;;;5082276;28;20023;-81
2021/12/11 10:26:40;;;;;;;19.25;5.90;;;;;;;;;;5094537;28;20043;-83
2021/12/11 10:29:09;;;;;;;19.55;5.85;;;;;;;;;;5101321;28;20036;-85
2021/12/11 10:32:05;;;;;;;21.55;6.32;;;;;;;;;;5102791;28;20370;-83
2021/12/11 10:34:32;;;;;;;16.92;5.78;;;;;;;;;;5101634;28;20039;-83
2021/12/11 10:37:00;;;;;;;20.95;5.70;;;;;;;;;;5098549;28;20153;-81
2021/12/11 10:39:26;;;;;;;16.63;5.53;;;;;;;;;;5102465;28;20031;-81
2021/12/11 10:41:52;;;;;;;16.58;6.00;;;;;;;;;;5102903;28;20022;-84
2021/12/11 10:44:31;;;;;;;19.02;6.35;;;;;;;;;;5100017;28;20094;-85
2021/12/11 10:47:05;;;;;;;19.38;5.80;;;;;;;;;;5105304;28;20160;-82
2021/12/11 10:49:33;;;;;;;20.17;5.80;;;;;;;;;;5106449;28;20017;-84
2021/12/11 10:52:21;;;;;;;13.95;5.40;;;;;;;;;;5098334;28;20027;-84
2021/12/11 10:54:48;;;;;;;14.82;5.40;;;;;;;;;;5103025;28;20028;-84
2021/12/11 10:57:16;;;;;;;18.00;5.95;;;;;;;;;;5101024;28;20024;-80
2021/12/11 10:59:44;;;;;;;21.23;6.30;;;;;;;;;;5099758;28;20024;-84
2021/12/11 11:02:15;;;;;;;18.02;5.78;;;;;;;;;;5085871;28;20046;-80
2021/12/11 11:04:47;;;;;;;15.52;5.25;;;;;;;;;;5081896;28;20020;-79
2021/12/11 11:07:12;;;;;;;12.30;4.80;;;;;;;;;;5098690;28;20051;-78
2021/12/11 11:09:39;;;;;;;17.85;5.40;;;;;;;;;;5089946;28;20020;-76
2021/12/11 11:12:07;;;;;;;17.60;5.00;;;;;;;;;;5089165;28;20023;-78
2021/12/11 11:14:33;;;;;;;17.67;5.07;;;;;;;;;;5094909;28;20030;-80
2021/12/11 11:17:03;;;;;;;16.13;5.20;;;;;;;;;;5097326;28;20028;-78
2021/12/11 11:19:30;;;;;;;14.73;4.65;;;;;;;;;;5089939;28;20035;-78
2021/12/11 11:22:03;;;;;;;17.55;4.90;;;;;;;;;;5093471;28;20044;-78
2021/12/11 11:24:33;;;;;;;14.15;5.20;;;;;;;;;;5098801;28;20096;-78
2021/12/11 11:27:01;;;;;;;16.00;4.93;;;;;;;;;;5101306;28;20055;-78
2021/12/11 11:29:27;;;;;;;15.57;5.10;;;;;;;;;;5101727;28;20091;-77
2021/12/11 11:31:57;;;;;;;15.27;4.97;;;;;;;;;;5101944;28;20028;-78
2021/12/11 11:34:26;;;;;;;15.77;4.78;;;;;;;;;;5101817;28;20363;-77
2021/12/11 11:36:54;;;;;;;13.05;4.40;;;;;;;;;;5101706;28;20077;-78
2021/12/11 11:39:23;;;;;;;16.75;4.22;;;;;;;;;;5101762;28;20296;-78
2021/12/11 11:41:57;;;;;;;15.52;4.57;;;;;;;;;;5100951;28;20096;-77
2021/12/11 11:44:25;;;;;;;14.45;3.90;;;;;;;;;;5101609;28;20313;-78
2021/12/11 11:46:52;;;;;;;17.00;4.20;;;;;;;;;;5101469;28;20053;-78
2021/12/11 11:49:18;;;;;;;14.50;4.35;;;;;;;;;;5101586;28;20027;-77
2021/12/11 11:51:54;;;;;;;13.10;4.28;;;;;;;;;;5101632;28;20016;-78
2021/12/11 11:54:24;;;;;;;17.77;6.18;;;;;;;;;;5100108;28;20614;-78
2021/12/11 11:56:58;;;;;;;14.93;4.50;;;;;;;;;;5100057;28;20016;-77
2021/12/11 11:59:24;;;;;;;16.17;4.68;;;;;;;;;;5081238;28;20055;-77
2021/12/11 12:02:04;;;;;;;18.48;4.97;;;;;;;;;;5080170;28;20099;-77
2021/12/11 12:04:31;;;;;;;8.98;4.35;;;;;;;;;;5080754;28;20062;-77
2021/12/11 12:07:00;;;;;;;20.98;4.95;;;;;;;;;;5081117;28;20062;-76
2021/12/11 12:09:27;;;;;;;13.55;4.60;;;;;;;;;;5080962;28;20028;-78
2021/12/11 12:11:54;;;;;;;20.55;5.00;;;;;;;;;;5093203;28;20016;-79
2021/12/11 12:14:23;;;;;;;19.83;5.40;;;;;;;;;;5101151;28;20032;-77
2021/12/11 12:16:50;;;;;;;17.80;4.90;;;;;;;;;;5101320;28;20030;-77
2021/12/11 12:19:17;;;;;;;16.27;4.63;;;;;;;;;;5100992;28;20038;-79
2021/12/11 12:21:46;;;;;;;15.63;5.20;;;;;;;;;;5101229;28;20070;-79
2021/12/11 12:24:12;;;;;;;19.77;4.72;;;;;;;;;;5091696;28;20016;-79
2021/12/11 12:26:38;;;;;;;12.65;3.85;;;;;;;;;;5094219;28;20190;-79
2021/12/11 12:29:07;;;;;;;15.23;4.82;;;;;;;;;;5100487;28;20312;-79
2021/12/11 12:31:46;;;;;;;17.25;4.93;;;;;;;;;;5099643;28;20046;-79
2021/12/11 12:34:13;;;;;;;15.52;5.32;;;;;;;;;;5101011;28;20059;-76
2021/12/11 12:36:41;;;;;;;14.48;4.93;;;;;;;;;;5101190;28;20110;-76
2021/12/11 12:39:08;;;;;;;17.33;4.82;;;;;;;;;;5100688;28;20355;-77
2021/12/11 12:41:58;;;;;;;21.02;5.57;;;;;;;;;;5100395;28;20059;-77
2021/12/11 12:44:26;;;;;;;13.95;4.22;;;;;;;;;;5101002;28;20433;-76
2021/12/11 12:47:14;;;;;;;20.15;4.60;;;;;;;;;;5101402;28;20311;-77
2021/12/11 12:49:45;;;;;;;16.83;3.83;;;;;;;;;;5087789;28;20039;-76
2021/12/11 12:52:17;;;;;;;13.68;4.13;;;;;;;;;;5103155;28;20028;-76
2021/12/11 12:54:44;;;;;;;13.35;4.20;;;;;;;;;;5104829;28;20103;-78
2021/12/11 12:57:17;;;;;;;13.82;3.97;;;;;;;;;;5103007;28;20027;-77
2021/12/11 13:00:17;;;;;;;18.00;4.60;;;;;;;;;;5104914;28;20023;-77
2021/12/11 13:02:45;;;;;;;19.00;4.50;;;;;;;;;;5100104;28;20032;-77
2021/12/11 13:05:29;;;;;;;19.45;4.82;;;;;;;;;;5103493;28;20055;-77
2021/12/11 13:07:59;;;;;;;18.83;4.28;;;;;;;;;;5104412;28;20028;-77
2021/12/11 13:10:37;;;;;;;17.38;4.68;;;;;;;;;;5104316;28;20089;-85
2021/12/11 13:13:04;;;;;;;15.23;4.25;;;;;;;;;;5101936;28;20031;-80
2021/12/11 13:15:36;;;;;;;15.10;3.80;;;;;;;;;;5104430;28;20038;-81
2021/12/11 13:18:06;;;;;;;17.45;4.43;;;;;;;;;;5103644;28;20027;-82
2021/12/11 13:20:41;;;;;;;18.98;4.75;;;;;;;;;;5104606;28;20212;-82
2021/12/11 13:23:08;;;;;;;22.85;4.70;;;;;;;;;;5104503;28;20080;-81
2021/12/11 13:25:43;;;;;;;14.10;3.95;;;;;;;;;;5104061;28;20071;-81
2021/12/11 13:28:09;;;;;;;;;;;;;;;;;;5104221;28;20024;-81
2021/12/11 13:30:47;;;;;;;12.85;4.30;;;;;;;;;;5104395;28;19908;-81
2021/12/11 13:33:18;;;;;;;13.02;4.32;;;;;;;;;;5104264;28;20032;-80
2021/12/11 13:35:44;;;;;;;14.90;4.53;;;;;;;;;;5104001;28;20024;-81
2021/12/11 13:38:12;;;;;;;19.17;4.88;;;;;;;;;;5104056;28;20020;-81
2021/12/11 13:40:43;;;;;;;13.57;4.47;;;;;;;;;;5104122;28;20024;-81
2021/12/11 13:43:09;;;;;;;15.32;4.78;;;;;;;;;;5105868;28;20032;-81
2021/12/11 13:45:37;;;;;;;12.10;3.72;;;;;;;;;;5106356;28;20020;-80
2021/12/11 13:48:05;;;;;;;15.50;4.35;;;;;;;;;;5104961;28;20035;-82
2021/12/11 13:50:36;;;;;;;17.60;4.30;;;;;;;;;;5102845;28;20048;-82
2021/12/11 13:53:03;;;;;;;11.88;4.32;;;;;;;;;;5104030;28;20020;-80
2021/12/11 13:55:29;;;;;;;14.73;4.43;;;;;;;;;;5103557;28;20020;-80
2021/12/11 13:57:55;;;;;;;15.73;5.05;;;;;;;;;;5103895;28;20075;-79
2021/12/11 14:00:30;;;;;;;17.85;4.38;;;;;;;;;;5103813;28;20247;-79
2021/12/11 14:02:55;;;;;;;15.77;4.35;;;;;;;;;;5103380;28;20319;-79
2021/12/11 14:05:21;;;;;;;15.35;4.05;;;;;;;;;;5101838;28;20077;-80
2021/12/11 14:07:48;;;;;;;16.13;4.40;;;;;;;;;;5103481;28;20024;-79
2021/12/11 14:10:31;;;;;;;17.25;4.72;;;;;;;;;;5103505;28;20016;-80
2021/12/11 14:12:57;;;;;;;16.02;4.28;;;;;;;;;;5103676;28;20204;-79
2021/12/11 14:15:24;;;;;;;14.07;4.00;;;;;;;;;;5103049;28;20229;-80
2021/12/11 14:17:50;;;;;;;16.80;4.63;;;;;;;;;;5103125;28;20032;-80
2021/12/11 14:20:18;;;;;;;18.98;4.40;;;;;;;;;;5102913;28;20279;-83
2021/12/11 14:22:46;;;;;;;17.70;4.50;;;;;;;;;;5103440;28;20019;-79
2021/12/11 14:25:15;;;;;;;14.15;4.07;;;;;;;;;;5103173;28;20059;-80
2021/12/11 14:27:41;;;;;;;13.85;3.70;;;;;;;;;;5102952;28;20039;-81
2021/12/11 14:30:11;;;;;;;18.60;4.43;;;;;;;;;;5101793;28;20020;-80
2021/12/11 14:32:42;;;;;;;11.70;4.45;;;;;;;;;;5103238;28;20020;-80
2021/12/11 14:35:10;;;;;;;16.83;4.28;;;;;;;;;;5102645;28;20073;-81
2021/12/11 14:37:35;;;;;;;14.77;4.18;;;;;;;;;;5102863;28;20020;-79
2021/12/11 14:40:04;;;;;;;13.25;4.00;;;;;;;;;;5102727;28;20020;-79
2021/12/11 14:42:30;;;;;;;14.60;4.03;;;;;;;;;;5102956;28;20065;-79
2021/12/11 14:44:59;;;;;;;14.75;3.92;;;;;;;;;;5102685;28;20042;-79
2021/12/11 14:47:24;;;;;;;13.02;3.50;;;;;;;;;;5102467;28;20067;-80
2021/12/11 14:49:53;;;;;;;16.17;4.30;;;;;;;;;;5102509;28;20020;-80
2021/12/11 14:52:23;;;;;;;18.38;4.68;;;;;;;;;;5102801;28;20011;-81
2021/12/11 14:54:50;;;;;;;14.85;3.83;;;;;;;;;;5102453;28;20110;-82
2021/12/11 14:57:19;;;;;;;13.02;3.90;;;;;;;;;;5102014;28;20020;-83
2021/12/11 14:59:52;;;;;;;13.88;3.95;;;;;;;;;;5102511;28;20047;-82
2021/12/11 15:02:25;;;;;;;20.25;4.70;;;;;;;;;;5102405;28;20027;-82
2021/12/11 15:04:54;;;;;;;15.82;4.55;;;;;;;;;;5102287;28;20012;-82
2021/12/11 15:07:21;;;;;;;20.70;4.65;;;;;;;;;;5101151;28;20019;-80
2021/12/11 15:09:47;;;;;;;18.63;4.80;;;;;;;;;;5101908;28;20027;-81